createdAt,value
2023-04-01T00:04:08.506Z,99090.97
2023-04-01T00:09:11.341Z,99097.66
2023-04-01T00:14:15.611Z,99094.81
2023-04-01T00:19:18.306Z,99090.91
2023-04-01T00:24:21.064Z,99093.47
2023-04-01T00:29:30.169Z,99093.28
2023-04-01T00:34:32.968Z,99096.22
2023-04-01T00:39:37.437Z,99089.03
2023-04-01T00:44:42.135Z,99099.59
2023-04-01T00:49:48.602Z,99083.41
2023-04-01T00:54:57.897Z,99088.25
2023-04-01T01:00:02.235Z,99089.25
2023-04-01T01:05:06.593Z,99087.09
2023-04-01T01:10:16.573Z,99095.25
2023-04-01T01:15:26.625Z,99093.84
2023-04-01T01:20:57.524Z,99094.72
2023-04-01T01:26:19.300Z,99090.47
2023-04-01T01:31:27.141Z,99102.88
2023-04-01T01:36:35.621Z,99107.03
2023-04-01T01:41:43.900Z,99104.94
2023-04-01T01:46:47.748Z,99098.63
2023-04-01T01:51:51.844Z,99107.22
2023-04-01T01:57:08.460Z,99106.78
2023-04-01T02:02:14.958Z,99109.59
2023-04-01T02:07:24.288Z,99116.78
2023-04-01T02:12:27.351Z,99115.19
2023-04-01T02:17:33.348Z,99121.47
2023-04-01T02:22:43.819Z,99110.50
2023-04-01T02:27:48.241Z,99114.22
2023-04-01T02:32:51.645Z,99119.22
2023-04-01T02:37:57.067Z,99119.13
2023-04-01T02:43:00.042Z,99125.03
2023-04-01T02:48:02.838Z,99129.03
2023-04-01T02:53:07.288Z,99126.84
2023-04-01T02:58:10.363Z,99140.78
2023-04-01T03:03:14.572Z,99140.13
2023-04-01T03:08:18.768Z,99148.03
2023-04-01T03:13:21.532Z,99149.97
2023-04-01T03:18:24.365Z,99148.13
2023-04-01T03:23:28.965Z,99152.91
2023-04-01T03:28:31.710Z,99153.13
2023-04-01T03:33:34.985Z,99156.13
2023-04-01T03:38:39.198Z,99158.94
2023-04-01T03:43:42.054Z,99155.44
2023-04-01T03:48:44.910Z,99162.72
2023-04-01T03:53:49.195Z,99167.53
2023-04-01T03:58:51.994Z,99171.06
2023-04-01T04:03:55.458Z,99173.13
2023-04-01T04:09:01.355Z,99173.69
2023-04-01T04:14:06.422Z,99174.25
2023-04-01T04:19:09.447Z,99177.31
2023-04-01T04:24:14.026Z,99185.44
2023-04-01T04:29:35.355Z,99187.63
2023-04-01T04:34:38.400Z,99192.66
2023-04-01T04:39:42.600Z,99202.53
2023-04-01T04:44:45.538Z,99208.28
2023-04-01T04:49:48.342Z,99215.72
2023-04-01T04:54:52.533Z,99212.06
2023-04-01T04:59:55.522Z,99219.84
2023-04-01T05:05:27.548Z,99226.22
2023-04-01T05:10:32.415Z,99224.09
2023-04-01T05:15:35.467Z,99224.41
2023-04-01T05:20:38.736Z,99237.53
2023-04-01T05:25:43.073Z,99240.59
2023-04-01T05:30:46.506Z,99243.97
2023-04-01T05:36:08.378Z,99250.00
2023-04-01T05:41:12.518Z,99256.44
2023-04-01T05:46:19.187Z,99267.72
2023-04-01T05:51:27.888Z,99273.41
2023-04-01T05:56:31.975Z,99284.56
2023-04-01T06:01:35.719Z,99294.47
2023-04-01T06:06:38.643Z,99299.97
2023-04-01T06:11:59.674Z,99310.44
2023-04-01T06:17:25.662Z,99308.09
2023-04-01T06:23:03.977Z,99320.72
2023-04-01T06:28:40.423Z,99325.44
2023-04-01T06:33:59.142Z,99332.25
2023-04-01T06:39:17.951Z,99350.66
2023-04-01T06:44:31.164Z,99365.44
2023-04-01T06:50:01.597Z,99361.56
2023-04-01T06:55:27.956Z,99374.41
2023-04-01T07:00:58.365Z,99388.19
2023-04-01T07:06:05.271Z,99381.69
2023-04-01T07:11:18.743Z,99393.88
2023-04-01T07:16:46.080Z,99415.44
2023-04-01T07:21:52.078Z,99415.41
2023-04-01T07:27:03.679Z,99431.25
2023-04-01T07:32:24.283Z,99436.00
2023-04-01T07:37:33.053Z,99444.38
2023-04-01T07:42:47.704Z,99448.78
2023-04-01T07:48:08.938Z,99458.59
2023-04-01T07:53:20.317Z,99475.91
2023-04-01T07:58:36.599Z,99492.59
2023-04-01T08:04:00.420Z,99500.78
2023-04-01T08:09:11.258Z,99498.59
2023-04-01T08:14:57.966Z,99512.47
2023-04-01T08:20:30.030Z,99520.94
2023-04-01T08:25:36.170Z,99522.09
2023-04-01T08:30:44.868Z,99533.75
2023-04-01T08:35:55.045Z,99537.66
2023-04-01T08:41:20.697Z,99547.84
2023-04-01T08:47:22.372Z,99575.06
2023-04-01T08:52:36.664Z,99574.91
2023-04-01T08:57:54.029Z,99578.38
2023-04-01T09:04:00.773Z,99575.97
2023-04-01T09:09:36.203Z,99598.59
2023-04-01T09:15:20.433Z,99600.00
2023-04-01T09:20:43.618Z,99596.47
2023-04-01T09:26:07.101Z,99609.66
2023-04-01T09:31:27.519Z,99618.47
2023-04-01T09:37:03.188Z,99627.88
2023-04-01T09:42:28.013Z,99648.47
2023-04-01T09:47:59.347Z,99639.91
2023-04-01T09:53:16.698Z,99657.94
2023-04-01T09:59:03.989Z,99661.50
2023-04-01T10:05:06.479Z,99671.63
2023-04-01T10:10:46.943Z,99676.59
2023-04-01T10:16:22.921Z,99672.97
2023-04-01T10:21:59.944Z,99684.72
2023-04-01T10:27:23.282Z,99695.53
2023-04-01T10:33:29.912Z,99707.38
2023-04-01T10:39:06.115Z,99707.22
2023-04-01T10:44:51.044Z,99710.38
2023-04-01T10:50:28.145Z,99715.09
2023-04-01T10:56:13.468Z,99727.91
2023-04-01T11:02:11.342Z,99741.00
2023-04-01T11:08:26.860Z,99754.47
2023-04-01T11:14:01.527Z,99754.38
2023-04-01T11:19:27.003Z,99759.78
2023-04-01T11:24:59.713Z,99767.75
2023-04-01T11:30:31.185Z,99783.22
2023-04-01T11:36:16.333Z,99797.59
2023-04-01T11:41:32.611Z,99803.94
2023-04-01T11:47:07.403Z,99790.72
2023-04-01T11:52:28.124Z,99804.31
2023-04-01T11:57:53.096Z,99820.13
2023-04-01T12:03:14.185Z,99838.72
2023-04-01T12:08:33.477Z,99851.56
2023-04-01T12:13:46.676Z,99858.13
2023-04-01T12:18:56.507Z,99866.22
2023-04-01T12:24:27.022Z,99870.97
2023-04-01T12:29:54.540Z,99880.03
2023-04-01T12:35:15.132Z,99884.88
2023-04-01T12:41:02.884Z,99891.28
2023-04-01T12:46:17.257Z,99902.78
2023-04-01T12:51:33.086Z,99908.88
2023-04-01T12:56:45.410Z,99923.16
2023-04-01T13:02:03.584Z,99923.53
2023-04-01T13:07:28.397Z,99938.13
2023-04-01T13:12:51.777Z,99947.94
2023-04-01T13:18:05.554Z,99955.84
2023-04-01T13:23:21.165Z,99967.13
2023-04-01T13:28:27.898Z,99976.97
2023-04-01T13:33:41.254Z,99983.72
2023-04-01T13:39:05.154Z,100001.81
2023-04-01T13:44:14.997Z,99998.50
2023-04-01T13:49:51.404Z,100002.69
2023-04-01T13:55:20.510Z,100020.22
2023-04-01T14:00:35.910Z,100025.59
2023-04-01T14:05:53.618Z,100026.88
2023-04-01T14:11:15.365Z,100044.47
2023-04-01T14:16:36.074Z,100047.56
2023-04-01T14:21:48.153Z,100048.53
2023-04-01T14:27:14.629Z,100065.41
2023-04-01T14:32:29.272Z,100067.31
2023-04-01T14:38:19.373Z,100073.38
2023-04-01T14:43:53.895Z,100078.34
2023-04-01T14:49:02.050Z,100100.72
2023-04-01T14:54:10.218Z,100108.13
2023-04-01T14:59:28.372Z,100114.97
2023-04-01T15:04:49.734Z,100122.28
2023-04-01T15:10:01.373Z,100128.31
2023-04-01T15:15:25.944Z,100137.88
2023-04-01T15:20:47.627Z,100139.25
2023-04-01T15:26:09.788Z,100155.72
2023-04-01T15:31:17.929Z,100183.47
2023-04-01T15:36:31.090Z,100177.34
2023-04-01T15:41:43.627Z,100191.59
2023-04-01T15:46:50.727Z,100193.22
2023-04-01T15:52:05.123Z,100198.66
2023-04-01T15:57:30.886Z,100205.66
2023-04-01T16:02:40.546Z,100220.88
2023-04-01T16:07:57.344Z,100238.91
2023-04-01T16:13:12.494Z,100244.44
2023-04-01T16:18:42.802Z,100252.53
2023-04-01T16:23:50.690Z,100265.66
2023-04-01T16:28:59.755Z,100271.81
2023-04-01T16:34:11.047Z,100273.69
2023-04-01T16:39:32.051Z,100299.91
2023-04-01T16:44:50.648Z,100302.97
2023-04-01T16:50:00.360Z,100324.50
2023-04-01T16:55:14.491Z,100335.97
2023-04-01T17:00:25.885Z,100341.03
2023-04-01T17:05:44.369Z,100350.34
2023-04-01T17:10:59.029Z,100370.53
2023-04-01T17:16:16.869Z,100386.81
2023-04-01T17:21:27.732Z,100389.41
2023-04-01T17:26:39.288Z,100406.31
2023-04-01T17:31:48.360Z,100415.13
2023-04-01T17:37:08.616Z,100425.25
2023-04-01T17:42:16.814Z,100431.63
2023-04-01T17:47:41.128Z,100449.66
2023-04-01T17:52:50.740Z,100459.75
2023-04-01T17:58:02.567Z,100466.72
2023-04-01T18:03:19.147Z,100481.16
2023-04-01T18:08:38.973Z,100487.16
2023-04-01T18:14:25.557Z,100500.06
2023-04-01T18:19:37.987Z,100527.50
2023-04-01T18:24:48.092Z,100542.66
2023-04-01T18:29:54.273Z,100546.66
2023-04-01T18:35:04.530Z,100554.34
2023-04-01T18:40:23.432Z,100564.94
2023-04-01T18:45:30.971Z,100583.94
2023-04-01T18:50:45.406Z,100595.75
2023-04-01T18:55:54.968Z,100613.25
2023-04-01T19:01:18.315Z,100632.28
2023-04-01T19:06:26.886Z,100630.31
2023-04-01T19:11:41.210Z,100636.34
2023-04-01T19:16:55.353Z,100655.31
2023-04-01T19:22:41.901Z,100663.84
2023-04-01T19:27:51.566Z,100669.78
2023-04-01T19:33:03.602Z,100672.84
2023-04-01T19:38:12.630Z,100669.16
2023-04-01T19:43:29.478Z,100688.56
2023-04-01T19:48:46.631Z,100708.56
2023-04-01T19:54:00.406Z,100721.84
2023-04-01T19:59:12.785Z,100726.53
2023-04-01T20:04:19.165Z,100739.63
2023-04-01T20:09:40.737Z,100757.56
2023-04-01T20:14:49.149Z,100760.41
2023-04-01T20:19:59.831Z,100785.75
2023-04-01T20:25:13.804Z,100788.31
2023-04-01T20:30:55.444Z,100805.09
2023-04-01T20:36:08.553Z,100821.75
2023-04-01T20:41:15.408Z,100828.50
2023-04-01T20:46:24.605Z,100824.81
2023-04-01T20:51:31.862Z,100834.88
2023-04-01T20:56:47.294Z,100854.28
2023-04-01T21:02:00.163Z,100862.63
2023-04-01T21:07:13.132Z,100876.00
2023-04-01T21:12:29.481Z,100883.91
2023-04-01T21:17:44.006Z,100897.84
2023-04-01T21:23:01.152Z,100902.72
2023-04-01T21:28:20.013Z,100903.53
2023-04-01T21:33:39.515Z,100909.44
2023-04-01T21:38:58.146Z,100919.81
2023-04-01T21:44:23.368Z,100925.59
2023-04-01T21:49:48.587Z,100935.47
2023-04-01T21:55:34.528Z,100942.22
2023-04-01T22:00:40.925Z,100959.56
2023-04-01T22:05:53.399Z,100969.78
2023-04-01T22:11:04.477Z,100981.66
2023-04-01T22:16:16.330Z,100992.53
2023-04-01T22:21:28.048Z,100995.28
2023-04-01T22:26:38.718Z,100998.88
2023-04-01T22:31:47.253Z,101012.50
2023-04-01T22:36:58.370Z,101026.38
2023-04-01T22:42:12.544Z,101032.78
2023-04-01T22:47:25.704Z,101045.53
2023-04-01T22:52:37.758Z,101050.00
2023-04-01T22:57:46.861Z,101063.75
2023-04-01T23:03:03.755Z,101061.28
2023-04-01T23:08:47.068Z,101071.63
2023-04-01T23:13:54.761Z,101086.97
2023-04-01T23:19:04.711Z,101089.50
2023-04-01T23:24:18.981Z,101093.53
2023-04-01T23:29:23.124Z,101111.28
2023-04-01T23:34:33.898Z,101115.00
2023-04-01T23:39:40.447Z,101125.25
2023-04-01T23:44:45.365Z,101133.00
2023-04-01T23:49:51.521Z,101140.53
2023-04-01T23:54:58.546Z,101143.78
